Latest Weather Observations for Cape Flattery

IDQ60801

Issued at 10:32 am EST Monday 2 March 2015 (issued every 30 minutes, with the page automatically refreshed every 10 minutes)

About weather observations | Map of weather stations | Latest weather observations for QLD | Other Formats
Station Details ID: 031213 Name: CAPE FLATTERY Lat: -14.97 Lon: 145.31 Height: 18.5 m
Data from the previous 72 hours. | See also: Recent months at Cape Flattery
Date/Time
EST
Temp
°C
App
Temp
°C
Dew
Point
Rel
Hum
%
Delta-T
°C
Wind Press
QNH
hPa
Press
MSL
hPa
Rain
since 9 am
mm
Dir
 
Spd
km/h
Gust
km/h
Spd
kts
Gust
kts
02/10:30am 29.6 31.4 21.8 63 5.3 SSE 15 19 8 10 1009.6 1009.5 0.0
02/10:00am 29.8 31.8 21.5 61 5.6 SE 13 19 7 10 1009.7 1009.6 0.0
02/09:30am 30.1 32.6 22.5 63 5.2 SE 13 20 7 11 1009.6 1009.5 0.0
02/09:00am 28.9 30.8 21.4 64 5.0 SE 13 19 7 10 1009.4 1009.3 0.0
02/08:30am 29.2 33.0 23.4 71 4.0 ESE 9 13 5 7 1009.2 1009.1 0.0
02/08:00am 28.2 31.8 23.1 74 3.5 ESE 9 11 5 6 1009.0 1008.9 0.0
02/07:30am 26.6 30.3 23.3 82 2.3 E 9 11 5 6 1008.7 1008.6 0.0
02/07:00am 25.6 29.2 23.1 86 1.7 E 9 9 5 5 1008.5 1008.4 0.0
02/06:30am 24.5 28.0 22.2 87 1.5 E 7 9 4 5 1008.2 1008.1 0.0
02/06:00am 24.8 28.0 22.3 86 1.7 ENE 9 11 5 6 1007.9 1007.8 0.0
02/05:30am 24.8 27.6 22.3 86 1.7 ENE 11 13 6 7 1007.7 1007.6 0.0
02/05:00am 24.5 27.1 22.0 86 1.7 E 11 11 6 6 1007.4 1007.3 0.0
02/04:30am 24.5 27.1 22.0 86 1.7 E 11 11 6 6 1007.4 1007.3 0.0
02/04:00am 24.3 27.0 21.4 84 1.9 E 9 9 5 5 1007.3 1007.2 0.0
02/03:30am 24.9 27.5 22.0 84 1.9 E 11 11 6 6 1007.2 1007.1 0.0
02/03:00am 25.1 28.3 22.4 85 1.8 E 9 11 5 6 1007.1 1007.0 0.0
02/02:30am 25.2 28.5 22.5 85 1.8 E 9 11 5 6 1007.3 1007.2 0.0
02/02:00am 25.2 28.4 22.3 84 1.9 E 9 9 5 5 1007.8 1007.7 0.0
02/01:30am 25.5 28.7 22.4 83 2.1 E 9 9 5 5 1008.2 1008.1 0.0
02/01:00am 25.9 29.2 22.6 82 2.2 E 9 11 5 6 1008.5 1008.4 0.0
02/12:30am 25.8 28.7 22.5 82 2.2 E 11 11 6 6 1008.9 1008.8 0.0
02/12:00am 25.9 29.6 22.6 82 2.2 ESE 7 11 4 6 1009.3 1009.2 0.0
 
Date/Time
EST
Temp
°C
App
Temp
°C
Dew
Point
Rel
Hum
%
Delta-T
°C
Wind Press
QNH
hPa
Press
MSL
hPa
Rain
since 9 am
mm
Dir
 
Spd
km/h
Gust
km/h
Spd
kts
Gust
kts
01/11:30pm 26.1 29.4 22.6 81 2.4 E 9 13 5 7 1009.2 1009.1 0.0
01/11:00pm 26.3 29.3 22.6 80 2.5 ENE 11 15 6 8 1009.3 1009.2 0.0
01/10:30pm 26.0 29.3 22.5 81 2.4 E 9 13 5 7 1009.5 1009.4 0.0
01/10:00pm 25.7 28.8 22.2 81 2.3 E 9 11 5 6 1009.3 1009.2 0.0
01/09:30pm 25.9 29.0 22.2 80 2.5 E 9 11 5 6 1009.3 1009.2 0.0
01/09:00pm 26.0 29.6 22.3 80 2.5 E 7 9 4 5 1009.0 1008.9 0.0
01/08:30pm 26.3 29.5 22.4 79 2.6 E 9 11 5 6 1008.4 1008.3 0.0
01/08:00pm 26.4 29.6 22.3 78 2.8 E 9 13 5 7 1008.2 1008.1 0.0
01/07:30pm 26.7 29.9 22.3 77 3.0 E 9 11 5 6 1007.9 1007.8 0.0
01/07:00pm 27.3 30.5 22.3 74 3.4 E 9 11 5 6 1007.5 1007.4 0.0
01/06:30pm 28.4 31.3 22.4 70 4.1 E 11 15 6 8 1007.1 1007.0 0.0
01/06:00pm 29.3 32.0 22.8 68 4.4 ESE 13 17 7 9 1007.0 1006.9 0.0
01/05:30pm 29.7 32.2 22.4 65 5.0 E 13 19 7 10 1006.7 1006.6 0.0
01/05:00pm 30.0 32.5 22.4 63 5.2 E 13 20 7 11 1006.6 1006.5 0.0
01/04:30pm 30.3 31.8 22.7 64 5.2 ESE 19 22 10 12 1006.5 1006.4 0.0
01/04:00pm 30.7 32.6 22.8 62 5.4 E 17 22 9 12 1006.4 1006.3 0.0
01/03:30pm 31.0 32.9 23.4 64 5.2 E 19 24 10 13 1006.6 1006.5 0.0
01/03:00pm 31.6 33.6 22.9 60 6.0 E 17 30 9 16 1006.7 1006.6 0.0
01/02:30pm 31.7 33.7 23.0 60 6.0 NNE 17 22 9 12 1006.8 1006.7 0.0
01/02:00pm 31.7 33.6 22.7 59 6.2 E 17 22 9 12 1007.2 1007.1 0.0
01/01:30pm 32.3 34.9 23.3 59 6.2 NE 15 24 8 13 1007.6 1007.5 0.0
01/01:00pm 32.0 35.0 23.3 60 6.0 ENE 13 20 7 11 1008.0 1007.9 0.0
01/12:30pm 31.4 34.5 23.5 63 5.5 ENE 13 22 7 12 1008.4 1008.3 0.0
01/12:00pm 30.0 32.1 22.4 63 5.2 E 15 22 8 12 1008.6 1008.5 0.0
01/11:30am 30.2 33.1 23.1 65 4.9 E 13 20 7 11 1008.9 1008.8 0.0
01/11:00am 30.1 33.2 22.8 65 5.0 NE 11 20 6 11 1009.1 1009.0 0.0
01/10:30am 29.9 31.7 21.8 62 5.5 E 15 22 8 12 1009.3 1009.2 0.0
01/10:00am 31.1 34.0 23.2 63 5.4 E 13 22 7 12 1009.4 1009.3 0.0
01/09:30am 30.4 32.7 22.8 64 5.2 E 15 20 8 11 1009.3 1009.2 0.0
01/09:00am 30.4 32.7 22.8 64 5.2 ENE 15 24 8 13 1009.1 1009.0 0.0
01/08:30am 29.6 32.5 23.1 68 4.5 E 13 22 7 12 1008.9 1008.8 0.0
01/08:00am 29.2 32.1 23.2 70 4.1 E 13 17 7 9 1008.3 1008.2 0.0
01/07:30am 28.6 32.9 23.7 75 3.4 E 7 11 4 6 1008.1 1008.0 0.0
01/07:00am 26.9 30.7 23.4 81 2.4 ENE 9 11 5 6 1007.8 1007.7 0.0
01/06:30am 25.6 28.7 22.9 85 1.8 E 11 11 6 6 1007.5 1007.4 0.0
01/06:00am 25.0 27.8 22.3 85 1.8 E 11 13 6 7 1007.4 1007.3 0.0
01/05:30am 24.6 27.7 22.1 86 1.7 E 9 11 5 6 1007.5 1007.4 0.0
01/05:00am 24.7 28.0 21.8 84 1.9 ENE 7 9 4 5 1007.2 1007.1 0.0
01/04:30am 25.1 28.3 22.4 85 1.8 ENE 9 11 5 6 1006.9 1006.8 0.0
01/04:00am 25.0 28.5 22.1 84 1.9 E 7 7 4 4 1006.7 1006.6 0.0
01/03:30am 25.0 28.1 22.1 84 1.9 E 9 9 5 5 1006.7 1006.6 0.0
01/03:00am 25.2 27.9 22.1 83 2.1 E 11 11 6 6 1006.6 1006.5 0.0
01/02:30am 25.2 28.3 22.1 83 2.1 E 9 11 5 6 1007.0 1006.9 0.0
01/02:00am 25.7 28.7 22.0 80 2.5 E 9 11 5 6 1007.4 1007.3 0.0
01/01:30am 26.0 28.9 21.7 77 2.9 E 9 11 5 6 1007.9 1007.8 0.0
01/01:00am 26.7 29.9 22.3 77 3.0 E 9 13 5 7 1008.1 1008.0 0.0
01/12:30am 26.6 29.6 22.7 79 2.6 ESE 11 15 6 8 1008.5 1008.4 0.0
01/12:00am 26.3 29.2 22.4 79 2.6 ESE 11 13 6 7 1008.9 1008.8 0.0
 
Date/Time
EST
Temp
°C
App
Temp
°C
Dew
Point
Rel
Hum
%
Delta-T
°C
Wind Press
QNH
hPa
Press
MSL
hPa
Rain
since 9 am
mm
Dir
 
Spd
km/h
Gust
km/h
Spd
kts
Gust
kts
28/11:30pm 26.3 29.3 21.9 77 2.9 E 9 11 5 6 1009.2 1009.1 0.0
28/11:00pm 26.7 29.8 22.1 76 3.1 E 9 11 5 6 1009.3 1009.2 0.0
28/10:30pm 26.6 29.6 22.0 76 3.1 ENE 9 13 5 7 1009.2 1009.1 0.0
28/10:00pm 26.4 29.0 22.0 77 3.0 E 11 13 6 7 1009.0 1008.9 0.0
28/09:30pm 26.7 29.5 22.3 77 3.0 E 11 13 6 7 1008.5 1008.4 0.0
28/09:00pm 26.6 29.5 22.4 78 2.8 E 11 13 6 7 1008.3 1008.2 0.0
28/08:30pm 26.6 29.6 22.7 79 2.6 E 11 13 6 7 1007.9 1007.8 0.0
28/08:00pm 26.3 30.4 22.2 78 2.8 E 4 9 2 5 1007.5 1007.4 0.0
28/07:30pm 27.0 30.8 22.4 76 3.1 NE 6 9 3 5 1007.1 1007.0 0.0
28/07:00pm 27.3 31.0 22.5 75 3.3 E 7 11 4 6 1006.7 1006.6 0.0
28/06:30pm 28.6 31.8 22.3 68 4.3 E 9 13 5 7 1006.3 1006.2 0.0
28/06:00pm 29.3 32.1 22.3 66 4.8 E 11 15 6 8 1006.4 1006.3 0.0
28/05:30pm 30.2 33.3 22.9 65 5.0 E 11 17 6 9 1006.1 1006.0 0.0
28/05:00pm 30.6 33.4 23.0 64 5.2 NNE 13 19 7 10 1005.9 1005.8 0.0
28/04:30pm 30.6 33.1 22.5 62 5.5 NNE 13 19 7 10 1005.8 1005.7 0.0
28/04:00pm 31.3 33.9 22.6 60 6.0 NE 13 19 7 10 1005.9 1005.8 0.0
28/03:30pm 31.2 33.5 22.8 61 5.8 NE 15 20 8 11 1006.1 1006.0 0.0
28/03:00pm 31.1 33.2 22.4 60 5.9 NE 15 20 8 11 1006.1 1006.0 0.0
28/02:30pm 31.2 33.0 22.5 60 5.9 NE 17 22 9 12 1006.1 1006.0 0.0
28/02:00pm 31.5 33.6 23.1 61 5.8 NE 17 20 9 11 1006.4 1006.3 0.0
28/01:30pm 31.6 34.1 23.2 61 5.8 NE 15 20 8 11 1006.7 1006.6 0.0
28/01:00pm 31.8 34.2 23.6 62 5.7 NE 17 20 9 11 1007.1 1007.0 0.0
28/12:30pm 31.6 34.6 23.4 61 5.7 NNE 13 20 7 11 1007.7 1007.6 0.0
28/12:00pm 31.2 34.0 23.0 61 5.6 NNE 13 20 7 11 1008.0 1007.9 0.0
28/11:30am 31.0 33.8 23.6 64 5.1 N 15 20 8 11 1008.3 1008.2 0.0
28/11:00am 30.4 32.6 23.3 66 4.9 N 17 20 9 11 1008.5 1008.4 0.0
28/10:30am 30.3 33.0 23.5 67 4.7 N 15 19 8 10 1008.9 1008.8 0.0
28/10:00am 30.1 33.7 23.8 69 4.4 NNW 11 13 6 7 1008.8 1008.7 0.0
28/09:30am 29.7 33.9 24.1 72 3.9 N 9 13 5 7 1008.7 1008.6 0.0
28/09:00am 29.0 33.0 23.7 73 3.7 NNW 9 13 5 7 1008.7 1008.6 0.0
28/08:30am 28.2 32.2 22.7 72 3.7 NNW 6 11 3 6 1008.4 1008.3 0.0
28/08:00am 27.3 32.6 23.7 81 2.5 WNW 2 6 1 3 1008.1 1008.0 0.0
28/07:30am 25.9 31.6 23.8 88 1.4 CALM 0 0 0 0 1007.5 1007.4 0.0
28/07:00am 25.2 30.8 23.6 91 1.1 CALM 0 0 0 0 1007.1 1007.0 0.0
28/06:30am 23.9 28.7 22.2 90 1.1 CALM 0 0 0 0 1006.9 1006.8 0.0
28/06:00am 24.6 29.9 23.0 91 1.1 CALM 0 0 0 0 1007.1 1007.0 0.0
28/05:30am 24.6 29.8 22.8 90 1.2 CALM 0 0 0 0 1006.8 1006.7 0.0
28/05:00am 24.7 28.9 23.1 91 1.1 ESE 6 7 3 4 1006.4 1006.3 0.0
28/04:30am 24.7 30.0 23.1 91 1.1 CALM 0 0 0 0 1006.4 1006.3 0.0
28/04:00am 24.8 29.8 23.2 91 1.1 ESE 2 6 1 3 1006.2 1006.1 0.0
28/03:30am 24.6 29.9 23.0 91 1.1 CALM 0 6 0 3 1006.3 1006.2 0.0
28/03:00am 24.5 29.3 22.9 91 1.1 WSW 2 6 1 3 1006.3 1006.2 0.0
28/02:30am 24.4 29.5 22.7 90 1.1 CALM 0 7 0 4 1006.7 1006.6 0.0
28/02:00am 24.1 28.9 22.2 89 1.3 CALM 0 0 0 0 1007.0 1006.9 0.0
28/01:30am 24.0 28.3 21.9 88 1.4 ENE 2 6 1 3 1007.4 1007.3 0.0
28/01:00am 25.0 29.1 22.9 88 1.4 NE 6 7 3 4 1007.9 1007.8 0.0
28/12:30am 24.5 29.4 22.4 88 1.4 CALM 0 0 0 0 1008.3 1008.2 0.0
28/12:00am 25.2 29.1 22.5 85 1.8 NE 6 6 3 3 1008.4 1008.3 0.0
 
Date/Time
EST
Temp
°C
App
Temp
°C
Dew
Point
Rel
Hum
%
Delta-T
°C
Wind Press
QNH
hPa
Press
MSL
hPa
Rain
since 9 am
mm
Dir
 
Spd
km/h
Gust
km/h
Spd
kts
Gust
kts
27/11:30pm 25.6 29.7 22.9 85 1.8 E 6 7 3 4 1008.5 1008.4 0.0
27/11:00pm 26.1 30.0 23.0 83 2.1 NE 7 9 4 5 1008.8 1008.7 0.0
27/10:30pm 26.6 30.6 23.1 81 2.4 NNE 7 9 4 5 1008.6 1008.5 0.0
27/10:00pm 27.4 31.3 23.0 77 3.0 NNE 7 9 4 5 1008.5 1008.4 0.0
27/09:30pm 27.8 31.9 23.2 76 3.1 NNE 7 11 4 6 1008.4 1008.3 0.0
27/09:00pm 28.3 32.3 23.7 76 3.2 N 9 13 5 7 1008.2 1008.1 0.0
27/08:30pm 28.2 32.2 23.8 77 3.0 NNE 9 15 5 8 1007.9 1007.8 0.0
27/08:00pm 28.0 31.9 23.6 77 3.0 N 9 11 5 6 1007.7 1007.6 0.0
27/07:30pm 27.8 31.9 23.2 76 3.1 NE 7 9 4 5 1007.3 1007.2 0.0
27/07:00pm 28.3 32.0 23.2 74 3.5 NE 9 11 5 6 1006.9 1006.8 0.0
27/06:30pm 28.7 32.7 23.1 71 3.8 NE 7 11 4 6 1006.4 1006.3 0.0
27/06:00pm 29.6 33.0 23.3 69 4.3 NE 11 13 6 7 1005.9 1005.8 0.0
27/05:30pm 30.1 33.5 23.3 67 4.7 NE 11 17 6 9 1005.7 1005.6 0.0
27/05:00pm 30.5 33.9 23.4 66 4.9 NE 11 19 6 10 1005.5 1005.4 0.0
27/04:30pm 30.9 34.0 22.8 62 5.5 NE 11 15 6 8 1005.3 1005.2 0.0
27/04:00pm 31.2 34.4 23.0 61 5.6 ENE 11 19 6 10 1005.4 1005.3 0.0
27/03:30pm 31.2 34.2 23.3 63 5.4 ENE 13 17 7 9 1005.4 1005.3 0.0
27/03:00pm 30.9 34.0 23.5 64 5.1 E 13 19 7 10 1005.6 1005.5 0.0
27/02:30pm 32.0 35.3 23.8 62 5.7 ENE 13 19 7 10 1005.8 1005.7 0.0
27/02:00pm 30.3 32.9 22.7 64 5.2 E 13 20 7 11 1006.3 1006.2 0.0
27/01:30pm 32.0 35.4 24.6 65 5.2 E 15 19 8 10 1006.4 1006.3 0.0
27/01:00pm 30.1 32.7 23.3 67 4.7 ESE 15 24 8 13 1007.0 1006.9 0.0
27/12:30pm 30.2 32.6 22.9 65 5.0 SE 15 20 8 11 1007.6 1007.5 0.0
27/12:00pm 31.3 33.6 23.4 63 5.5 SE 17 24 9 13 1007.9 1007.8 0.0
27/11:30am 30.8 33.0 23.2 64 5.2 SE 17 26 9 14 1008.1 1008.0 0.0
27/11:00am 31.2 33.8 23.3 63 5.5 SE 15 22 8 12 1008.4 1008.3 0.0

Other Formats:

Comma delimited format used in spreadsheet applications
http://www.bom.gov.au/fwo/IDQ60801/IDQ60801.94188.axf

JavaScript Object Notation format (JSON) in row-major order
http://www.bom.gov.au/fwo/IDQ60801/IDQ60801.94188.json